createdAt,value
2023-05-14T00:00:51.982Z,15.89
2023-05-14T00:05:50.971Z,15.82
2023-05-14T00:10:49.711Z,15.64
2023-05-14T00:15:48.433Z,15.66
2023-05-14T00:20:48.565Z,15.55
2023-05-14T00:25:47.415Z,15.55
2023-05-14T00:30:46.171Z,15.50
2023-05-14T00:35:44.942Z,15.45
2023-05-14T00:40:50.035Z,15.43
2023-05-14T00:45:51.224Z,15.40
2023-05-14T00:50:51.883Z,15.41
2023-05-14T00:55:52.478Z,15.40
2023-05-14T01:00:52.153Z,15.45
2023-05-14T01:06:08.510Z,15.38
2023-05-14T01:11:15.094Z,15.33
2023-05-14T01:16:15.081Z,15.30
2023-05-14T01:21:26.918Z,15.27
2023-05-14T01:26:25.723Z,15.25
2023-05-14T01:31:28.867Z,15.19
2023-05-14T01:36:29.916Z,15.16
2023-05-14T01:41:30.495Z,15.15
2023-05-14T01:46:32.863Z,15.09
2023-05-14T01:51:33.177Z,14.97
2023-05-14T01:56:31.904Z,15.03
2023-05-14T02:01:30.685Z,15.00
2023-05-14T02:06:29.526Z,15.04
2023-05-14T02:11:29.704Z,15.01
2023-05-14T02:16:28.464Z,14.93
2023-05-14T02:21:28.231Z,14.92
2023-05-14T02:26:27.030Z,14.87
2023-05-14T02:31:28.146Z,14.94
2023-05-14T02:36:26.902Z,14.97
2023-05-14T02:41:26.047Z,14.97
2023-05-14T02:46:24.900Z,14.85
2023-05-14T02:51:25.062Z,14.88
2023-05-14T02:56:23.880Z,14.93
2023-05-14T03:01:22.721Z,14.95
2023-05-14T03:06:21.905Z,15.00
2023-05-14T03:11:22.360Z,15.04
2023-05-14T03:16:21.232Z,15.14
2023-05-14T03:21:20.108Z,15.17
2023-05-14T03:26:18.859Z,15.17
2023-05-14T03:31:19.256Z,15.16
2023-05-14T03:36:18.091Z,15.16
2023-05-14T03:41:20.616Z,15.10
2023-05-14T03:46:21.161Z,15.10
2023-05-14T03:51:20.205Z,15.06
2023-05-14T03:56:19.172Z,15.04
2023-05-14T04:01:20.178Z,15.08
2023-05-14T04:06:18.923Z,15.08
2023-05-14T04:11:17.767Z,15.07
2023-05-14T04:16:18.125Z,14.93
2023-05-14T04:21:18.583Z,15.03
2023-05-14T04:26:17.358Z,15.17
2023-05-14T04:31:17.237Z,15.08
2023-05-14T04:36:16.182Z,15.13
2023-05-14T04:41:16.441Z,15.07
2023-05-14T04:46:15.639Z,15.14
2023-05-14T04:51:14.588Z,15.27
2023-05-14T04:56:15.511Z,15.26
2023-05-14T05:01:24.619Z,15.38
2023-05-14T05:06:23.369Z,15.30
2023-05-14T05:11:24.854Z,15.41
2023-05-14T05:16:25.710Z,15.57
2023-05-14T05:21:27.310Z,15.76
2023-05-14T05:26:27.409Z,15.94
2023-05-14T05:31:27.997Z,16.12
2023-05-14T05:36:27.433Z,16.18
2023-05-14T05:41:26.686Z,16.27
2023-05-14T05:46:25.386Z,16.45
2023-05-14T05:51:25.596Z,16.69
2023-05-14T05:56:24.342Z,16.88
2023-05-14T06:01:23.266Z,17.06
2023-05-14T06:06:22.124Z,17.21
2023-05-14T06:11:22.450Z,17.41
2023-05-14T06:16:21.430Z,17.56
2023-05-14T06:21:20.232Z,17.75
2023-05-14T06:26:19.031Z,17.97
2023-05-14T06:31:19.615Z,18.21
2023-05-14T06:36:18.420Z,18.45
2023-05-14T06:41:17.737Z,18.70
2023-05-14T06:46:16.458Z,19.02
2023-05-14T06:51:16.740Z,19.24
2023-05-14T06:56:15.893Z,19.55
2023-05-14T07:01:14.648Z,19.88
2023-05-14T07:06:14.068Z,20.08
2023-05-14T07:11:14.519Z,20.48
2023-05-14T07:16:13.256Z,20.48
2023-05-14T07:21:12.044Z,20.83
2023-05-14T07:26:11.213Z,21.00
2023-05-14T07:31:11.542Z,21.09
2023-05-14T07:36:10.497Z,20.97
2023-05-14T07:41:09.364Z,21.35
2023-05-14T07:46:08.472Z,21.58
2023-05-14T07:51:09.159Z,21.74
2023-05-14T07:56:08.926Z,21.85
2023-05-14T08:01:09.295Z,21.93
2023-05-14T08:06:09.654Z,22.05
2023-05-14T08:11:08.568Z,22.41
2023-05-14T08:16:08.359Z,22.68
2023-05-14T08:21:07.576Z,22.76
2023-05-14T08:26:07.989Z,22.97
2023-05-14T08:31:06.967Z,23.25
2023-05-14T08:36:07.699Z,23.77
2023-05-14T08:41:08.597Z,24.16
2023-05-14T08:46:08.667Z,24.25
2023-05-14T08:51:09.071Z,24.64
2023-05-14T08:56:10.597Z,25.12
2023-05-14T09:01:09.207Z,25.05
2023-05-14T09:06:08.883Z,24.93
2023-05-14T09:11:08.994Z,25.47
2023-05-14T09:16:08.507Z,25.01
2023-05-14T09:21:09.478Z,24.48
2023-05-14T09:26:10.265Z,24.77
2023-05-14T09:31:11.055Z,24.07
2023-05-14T09:36:10.134Z,24.14
2023-05-14T09:41:10.755Z,24.13
2023-05-14T09:46:10.004Z,24.37
2023-05-14T09:51:11.163Z,24.52
2023-05-14T09:56:12.577Z,23.88
2023-05-14T10:01:11.801Z,24.20
2023-05-14T10:06:13.508Z,23.52
2023-05-14T10:11:25.186Z,23.35
2023-05-14T10:16:30.252Z,23.03
2023-05-14T10:21:31.956Z,23.10
2023-05-14T10:26:33.087Z,23.23
2023-05-14T10:31:48.944Z,23.36
2023-05-14T10:36:47.757Z,22.89
2023-05-14T10:41:47.816Z,22.67
2023-05-14T10:46:46.650Z,22.95
2023-05-14T10:51:49.882Z,23.23
2023-05-14T10:56:50.864Z,23.57
2023-05-14T11:01:50.196Z,23.92
2023-05-14T11:06:49.087Z,24.16
2023-05-14T11:11:49.433Z,24.04
2023-05-14T11:16:48.815Z,24.68
2023-05-14T11:21:47.573Z,24.49
2023-05-14T11:26:46.913Z,24.32
2023-05-14T11:31:47.442Z,24.60
2023-05-14T11:36:46.259Z,25.14
2023-05-14T11:41:45.711Z,24.81
2023-05-14T11:46:56.803Z,25.64
2023-05-14T11:51:58.780Z,26.48
2023-05-14T11:56:58.414Z,27.95
2023-05-14T12:01:59.359Z,28.88
2023-05-14T12:06:59.228Z,29.64
2023-05-14T12:11:57.819Z,29.16
2023-05-14T12:16:56.452Z,29.76
2023-05-14T12:21:56.552Z,30.24
2023-05-14T12:26:55.680Z,30.45
2023-05-14T12:31:54.473Z,30.23
2023-05-14T12:36:53.406Z,30.95
2023-05-14T12:41:53.602Z,31.39
2023-05-14T12:46:52.458Z,31.16
2023-05-14T12:51:56.741Z,31.84
2023-05-14T12:57:05.125Z,32.03
2023-05-14T13:02:03.869Z,31.94
2023-05-14T13:07:02.552Z,31.60
2023-05-14T13:12:01.316Z,31.46
2023-05-14T13:17:01.633Z,31.05
2023-05-14T13:22:00.425Z,30.77
2023-05-14T13:26:59.190Z,30.34
2023-05-14T13:31:57.945Z,30.21
2023-05-14T13:36:58.094Z,29.90
2023-05-14T13:41:57.176Z,30.67
2023-05-14T13:46:56.123Z,30.92
2023-05-14T13:51:54.858Z,31.48
2023-05-14T13:56:55.052Z,30.87
2023-05-14T14:01:54.013Z,31.54
2023-05-14T14:06:52.801Z,30.33
2023-05-14T14:11:51.830Z,30.18
2023-05-14T14:16:52.028Z,29.83
2023-05-14T14:26:54.624Z,28.84
2023-05-14T14:31:55.209Z,28.59
2023-05-14T14:36:53.934Z,28.59
2023-05-14T14:41:53.020Z,28.57
2023-05-14T14:46:52.100Z,28.12
2023-05-14T14:51:52.201Z,27.72
2023-05-14T14:56:52.581Z,27.47
2023-05-14T15:01:51.590Z,27.29
2023-05-14T15:06:51.844Z,26.64
2023-05-14T15:11:50.949Z,26.35
2023-05-14T15:16:51.052Z,26.52
2023-05-14T15:21:52.917Z,25.99
2023-05-14T15:26:53.330Z,25.87
2023-05-14T15:31:55.516Z,25.44
2023-05-14T15:36:55.701Z,25.51
2023-05-14T15:41:54.487Z,25.41
2023-05-14T15:46:55.424Z,25.42
2023-05-14T15:51:56.080Z,25.01
2023-05-14T15:56:55.154Z,24.72
2023-05-14T16:01:56.483Z,24.37
2023-05-14T16:07:01.641Z,24.12
2023-05-14T16:12:00.673Z,24.11
2023-05-14T16:16:59.479Z,24.23
2023-05-14T16:21:59.561Z,24.09
2023-05-14T16:26:58.528Z,24.13
2023-05-14T16:31:58.634Z,24.11
2023-05-14T16:37:00.289Z,23.81
2023-05-14T16:41:59.044Z,23.66
2023-05-14T16:46:57.940Z,23.67
2023-05-14T16:51:56.941Z,23.48
2023-05-14T16:56:57.090Z,23.19
2023-05-14T17:01:56.101Z,22.95
2023-05-14T17:06:54.905Z,22.73
2023-05-14T17:11:53.610Z,22.66
2023-05-14T17:16:53.824Z,22.50
2023-05-14T17:21:52.638Z,22.45
2023-05-14T17:26:51.483Z,22.40
2023-05-14T17:31:50.979Z,22.40
2023-05-14T17:36:51.574Z,22.30
2023-05-14T17:41:50.376Z,22.15
2023-05-14T17:46:49.778Z,22.11
2023-05-14T17:51:48.707Z,21.99
2023-05-14T17:56:50.990Z,21.93
2023-05-14T18:01:49.668Z,21.90
2023-05-14T18:06:48.442Z,21.76
2023-05-14T18:11:48.691Z,21.57
2023-05-14T18:16:47.517Z,21.41
2023-05-14T18:21:48.248Z,21.32
2023-05-14T18:26:48.431Z,21.33
2023-05-14T18:31:47.170Z,21.20
2023-05-14T18:36:45.948Z,21.10
2023-05-14T18:41:44.717Z,21.10
2023-05-14T18:46:44.891Z,20.94
2023-05-14T18:51:43.759Z,20.86
2023-05-14T18:56:46.832Z,20.76
2023-05-14T19:01:48.114Z,20.64
2023-05-14T19:06:47.055Z,20.56
2023-05-14T19:11:45.912Z,20.47
2023-05-14T19:16:44.797Z,20.35
2023-05-14T19:21:45.043Z,20.28
2023-05-14T19:26:43.881Z,20.20
2023-05-14T19:31:42.696Z,20.17
2023-05-14T19:36:42.038Z,20.17
2023-05-14T19:41:42.855Z,20.14
2023-05-14T19:46:44.795Z,19.97
2023-05-14T19:51:50.219Z,19.97
2023-05-14T19:56:51.394Z,20.03
2023-05-14T20:01:50.317Z,19.85
2023-05-14T20:07:09.486Z,19.83
2023-05-14T20:12:20.157Z,19.77
2023-05-14T20:17:21.194Z,19.74
2023-05-14T20:22:25.054Z,19.71
2023-05-14T20:27:27.602Z,19.64
2023-05-14T20:32:28.959Z,19.48
2023-05-14T20:37:27.744Z,19.43
2023-05-14T20:42:29.082Z,19.35
2023-05-14T20:47:36.507Z,19.41
2023-05-14T20:52:35.497Z,19.52
2023-05-14T20:57:35.698Z,19.57
2023-05-14T21:02:34.609Z,19.63
2023-05-14T21:07:35.774Z,19.60
2023-05-14T21:13:12.824Z,19.61
2023-05-14T21:18:12.407Z,19.60
2023-05-14T21:23:17.691Z,19.59
2023-05-14T21:28:20.186Z,19.53
2023-05-14T21:33:19.193Z,19.41
2023-05-14T21:38:18.049Z,19.43
2023-05-14T21:43:18.609Z,19.39
2023-05-14T21:48:17.751Z,19.44
2023-05-14T21:53:19.130Z,19.35
2023-05-14T21:58:30.905Z,19.36
2023-05-14T22:03:29.702Z,19.37
2023-05-14T22:08:29.768Z,19.31
2023-05-14T22:13:34.876Z,19.31
2023-05-14T22:18:34.423Z,19.28
2023-05-14T22:23:34.569Z,19.10
2023-05-14T22:28:34.782Z,18.89
2023-05-14T22:33:36.861Z,18.79
2023-05-14T22:38:43.552Z,18.73
2023-05-14T22:43:48.813Z,18.74
2023-05-14T22:48:49.418Z,18.64
2023-05-14T22:53:55.218Z,18.57
2023-05-14T22:59:00.361Z,18.46
2023-05-14T23:04:01.914Z,18.34
2023-05-14T23:09:00.739Z,18.33
2023-05-14T23:14:03.904Z,18.26
2023-05-14T23:19:03.994Z,18.15
2023-05-14T23:24:02.940Z,18.01
2023-05-14T23:29:03.075Z,17.93
2023-05-14T23:34:01.880Z,17.81
2023-05-14T23:39:00.895Z,17.89
2023-05-14T23:44:03.777Z,17.91
2023-05-14T23:49:02.603Z,17.91
2023-05-14T23:54:01.274Z,17.79
2023-05-14T23:59:00.073Z,17.81
